Time;durP1;ratioP1;P1;durP2;ratioP2;P2;SDS_P1;SDS_P2;PMS_P1;PMS_P2;Temp;Humidity;BMP_temperature;BMP_pressure;BME280_temperature;BME280_humidity;BME280_pressure;Samples;Min_cycle;Max_cycle;Signal;HPM_P1;HPM_P2
2022/04/01 00:02:07;;;;;;;71.57;49.50;;;16.50;51.80;;;;;;4987854;28;95278;-38
2022/04/01 00:04:33;;;;;;;72.32;49.75;;;16.40;51.70;;;;;;4989793;28;95563;-37
2022/04/01 00:06:59;;;;;;;71.15;49.55;;;16.50;51.90;;;;;;4992774;28;94978;-37
2022/04/01 00:09:24;;;;;;;71.60;49.35;;;16.40;51.70;;;;;;4993072;28;93899;-34
2022/04/01 00:11:51;;;;;;;71.68;49.72;;;16.40;52.00;;;;;;4989147;28;95032;-41
2022/04/01 00:14:17;;;;;;;71.50;49.40;;;16.50;51.90;;;;;;4995631;28;96864;-40
2022/04/01 00:16:43;;;;;;;71.60;49.63;;;16.50;51.90;;;;;;4990852;28;96313;-38
2022/04/01 00:19:08;;;;;;;71.75;49.85;;;16.50;52.10;;;;;;4984350;28;97446;-48
2022/04/01 00:21:34;;;;;;;71.63;49.72;;;16.50;51.90;;;;;;4998851;28;95462;-42
2022/04/01 00:24:01;;;;;;;71.47;49.55;;;16.50;52.00;;;;;;4986872;28;94867;-41
2022/04/01 00:26:26;;;;;;;71.22;49.65;;;16.40;51.90;;;;;;4993805;28;95359;-40
2022/04/01 00:28:52;;;;;;;71.45;49.67;;;16.40;51.90;;;;;;4994874;28;95587;-38
2022/04/01 00:31:18;;;;;;;71.55;50.00;;;16.40;52.00;;;;;;4991817;28;101302;-39
2022/04/01 00:33:44;;;;;;;72.28;50.05;;;16.40;51.90;;;;;;4993565;28;96221;-41
2022/04/01 00:36:10;;;;;;;71.25;49.60;;;16.40;52.10;;;;;;4990460;27;95248;-40
2022/04/01 00:38:35;;;;;;;71.28;49.70;;;16.40;52.00;;;;;;4993337;28;96208;-42
2022/04/01 00:41:01;;;;;;;71.15;49.83;;;16.40;51.80;;;;;;4994251;28;96251;-40
2022/04/01 00:43:30;;;;;;;71.78;50.10;;;16.30;51.70;;;;;;4992755;28;95089;-37
2022/04/01 00:45:55;;;;;;;71.28;49.72;;;16.40;52.00;;;;;;4992356;28;94944;-43
2022/04/01 00:48:22;;;;;;;70.82;49.65;;;16.30;52.00;;;;;;4985661;28;95131;-39
2022/04/01 00:50:48;;;;;;;72.22;49.80;;;16.30;52.10;;;;;;4989188;28;95239;-41
2022/04/01 00:53:14;;;;;;;72.15;49.85;;;16.20;52.00;;;;;;4993039;28;97745;-40
2022/04/01 00:55:40;;;;;;;71.57;49.92;;;16.20;52.20;;;;;;4986880;28;97231;-40
2022/04/01 00:58:09;;;;;;;70.72;49.67;;;16.20;52.30;;;;;;4992209;28;94350;-41
2022/04/01 01:00:36;;;;;;;71.13;49.85;;;16.20;52.10;;;;;;4994126;28;94728;-37
2022/04/01 01:03:05;;;;;;;70.88;49.58;;;16.10;52.40;;;;;;4995702;28;95641;-42
2022/04/01 01:05:31;;;;;;;71.15;49.85;;;16.10;52.50;;;;;;4993061;28;95662;-42
2022/04/01 01:07:58;;;;;;;71.85;49.88;;;16.20;52.40;;;;;;4995013;28;94953;-41
2022/04/01 01:10:25;;;;;;;71.22;50.13;;;16.10;52.10;;;;;;4992213;28;94556;-40
2022/04/01 01:12:51;;;;;;;71.82;50.05;;;16.10;52.20;;;;;;4995287;28;97278;-41
2022/04/01 01:15:18;;;;;;;72.43;50.30;;;16.10;52.70;;;;;;4993190;28;95121;-38
2022/04/01 01:17:47;;;;;;;70.50;49.47;;;16.10;52.50;;;;;;4988559;28;95226;-38
2022/04/01 01:20:17;;;;;;;71.85;50.35;;;16.10;52.40;;;;;;4987649;27;96133;-38
2022/04/01 01:22:47;;;;;;;71.57;50.03;;;16.10;52.50;;;;;;4994734;27;95102;-39
2022/04/01 01:25:13;;;;;;;71.47;49.88;;;16.10;52.30;;;;;;4987278;28;95532;-37
2022/04/01 01:27:40;;;;;;;72.10;50.58;;;16.20;52.20;;;;;;4988383;28;95058;-41
2022/04/01 01:30:07;;;;;;;71.68;49.85;;;16.30;52.10;;;;;;4988269;28;100303;-42
2022/04/01 01:32:34;;;;;;;72.22;50.25;;;16.30;52.20;;;;;;4989937;28;95864;-40
2022/04/01 01:35:02;;;;;;;71.53;50.28;;;16.30;52.10;;;;;;4995977;28;94920;-39
2022/04/01 01:37:28;;;;;;;71.93;50.22;;;16.30;52.10;;;;;;4990100;28;101681;-41
2022/04/01 01:39:55;;;;;;;71.35;50.15;;;16.30;51.90;;;;;;4988973;28;96197;-40
2022/04/01 01:42:21;;;;;;;71.57;50.10;;;16.30;51.90;;;;;;5009343;27;95019;-39
2022/04/01 01:44:46;;;;;;;71.50;49.92;;;16.30;51.90;;;;;;4983778;28;96149;-40
2022/04/01 01:47:12;;;;;;;72.53;50.90;;;16.30;51.90;;;;;;4992209;28;94248;-41
2022/04/01 01:54:42;;;;;;;72.93;50.78;;;16.30;51.90;;;;;;4985646;28;96134;-37
2022/04/01 01:55:08;;;;;;;72.43;50.50;;;16.30;52.00;;;;;;4988804;28;96000;-38
2022/04/01 01:57:35;;;;;;;71.72;49.78;;;16.30;51.70;;;;;;4997645;27;96014;-37
2022/04/01 02:00:10;;;;;;;71.93;49.90;;;16.30;51.90;;;;;;4990258;28;96397;-40
2022/04/01 02:02:39;;;;;;;71.13;49.80;;;16.30;52.00;;;;;;4994547;28;95387;-40
2022/04/01 02:05:06;;;;;;;72.38;50.15;;;16.20;52.20;;;;;;4990476;28;99741;-40
2022/04/01 02:07:32;;;;;;;71.30;49.72;;;16.20;52.00;;;;;;4996492;28;94666;-39
2022/04/01 02:09:58;;;;;;;70.57;49.53;;;16.10;52.10;;;;;;4988214;28;95682;-37
2022/04/01 02:12:24;;;;;;;70.82;49.70;;;16.20;52.30;;;;;;4992374;28;95578;-40
2022/04/01 02:14:49;;;;;;;70.63;49.35;;;16.10;52.30;;;;;;4988368;28;94999;-40
2022/04/01 02:17:15;;;;;;;71.53;49.95;;;16.10;52.20;;;;;;4990818;28;95728;-38
2022/04/01 02:19:41;;;;;;;70.63;49.53;;;16.10;52.20;;;;;;4988361;28;96367;-38
2022/04/01 02:22:07;;;;;;;70.78;49.25;;;16.10;52.20;;;;;;4992347;28;94963;-36
2022/04/01 02:24:33;;;;;;;71.55;49.53;;;16.10;52.20;;;;;;4993968;28;95442;-36
2022/04/01 02:26:59;;;;;;;70.53;49.35;;;16.10;52.30;;;;;;4994534;28;96694;-39
2022/04/01 02:29:25;;;;;;;71.15;49.85;;;16.00;52.10;;;;;;4994951;28;95878;-38
2022/04/01 02:31:51;;;;;;;70.32;49.30;;;16.00;52.40;;;;;;4991769;28;95060;-37
2022/04/01 02:34:18;;;;;;;70.22;49.25;;;15.90;52.20;;;;;;4996622;28;94709;-40
2022/04/01 02:36:44;;;;;;;70.50;49.33;;;15.90;52.30;;;;;;4993573;28;94081;-38
2022/04/01 02:39:10;;;;;;;70.20;49.28;;;15.90;52.30;;;;;;4994078;28;95481;-39
2022/04/01 02:41:35;;;;;;;70.35;49.20;;;16.00;52.40;;;;;;4983669;28;96992;-37
2022/04/01 02:44:12;;;;;;;70.70;49.47;;;16.00;52.40;;;;;;4989843;28;95992;-50
2022/04/01 02:46:40;;;;;;;70.40;49.17;;;16.00;52.20;;;;;;4990545;28;95009;-37
2022/04/01 02:49:08;;;;;;;69.90;49.10;;;16.00;52.40;;;;;;4985246;28;94880;-37
2022/04/01 02:51:39;;;;;;;70.53;49.22;;;16.00;52.40;;;;;;4995606;28;95070;-40
2022/04/01 02:54:06;;;;;;;70.53;48.97;;;16.10;52.30;;;;;;4995497;28;95036;-40
2022/04/01 02:56:33;;;;;;;69.47;48.92;;;16.10;52.50;;;;;;4990084;28;95185;-40
2022/04/01 02:59:01;;;;;;;70.22;48.95;;;16.20;52.00;;;;;;4991637;28;98189;-39
2022/04/01 03:01:27;;;;;;;70.25;48.85;;;16.10;52.10;;;;;;4991041;28;96255;-37
2022/04/01 03:03:53;;;;;;;70.55;49.13;;;16.20;52.40;;;;;;4987712;28;95071;-39
2022/04/01 03:06:19;;;;;;;70.20;48.95;;;16.20;52.10;;;;;;4991578;28;94830;-38
2022/04/01 03:08:45;;;;;;;70.18;49.33;;;16.20;52.10;;;;;;4988313;28;96452;-33
2022/04/01 03:11:12;;;;;;;70.05;48.90;;;16.30;52.10;;;;;;4991054;28;94837;-39
2022/04/01 03:13:38;;;;;;;70.32;49.15;;;16.30;51.90;;;;;;4990685;28;95096;-36
2022/04/01 03:16:04;;;;;;;70.07;48.97;;;16.20;51.80;;;;;;4987758;28;95107;-35
2022/04/01 03:18:29;;;;;;;70.15;49.20;;;16.20;51.90;;;;;;4984975;28;95708;-34
2022/04/01 03:20:55;;;;;;;70.00;49.13;;;16.20;52.10;;;;;;4984052;28;94806;-39
2022/04/01 03:23:21;;;;;;;69.78;48.95;;;16.10;52.00;;;;;;4989044;28;94884;-34
2022/04/01 03:25:46;;;;;;;70.00;48.90;;;16.10;52.00;;;;;;4984498;28;95673;-41
2022/04/01 03:28:13;;;;;;;69.68;48.88;;;16.20;52.20;;;;;;4986658;28;95143;-38
2022/04/01 03:30:39;;;;;;;70.10;49.15;;;16.20;52.20;;;;;;4989203;28;96129;-38
2022/04/01 03:33:05;;;;;;;70.10;49.22;;;16.10;52.00;;;;;;4986909;28;95973;-37
2022/04/01 03:35:32;;;;;;;70.53;49.22;;;16.10;52.00;;;;;;4991822;28;95543;-38
2022/04/01 03:37:59;;;;;;;69.85;48.95;;;16.10;52.10;;;;;;4990179;28;96119;-38
2022/04/01 03:40:29;;;;;;;70.18;49.08;;;16.10;52.30;;;;;;4987392;28;95480;-37
2022/04/01 03:42:55;;;;;;;70.38;49.22;;;16.00;52.10;;;;;;4986116;28;95150;-38
2022/04/01 03:45:22;;;;;;;69.88;49.00;;;16.00;52.20;;;;;;4988960;28;95073;-38
2022/04/01 03:48:14;;;;;;;70.18;49.13;;;16.00;52.30;;;;;;4986650;28;95599;-35
2022/04/01 03:50:45;;;;;;;68.78;48.65;;;15.90;52.20;;;;;;4983662;28;95779;-34
2022/04/01 03:53:11;;;;;;;70.35;49.38;;;15.90;52.50;;;;;;4987264;28;95445;-41
2022/04/01 03:55:41;;;;;;;71.10;49.25;;;16.00;52.40;;;;;;4992661;28;95087;-38
2022/04/01 03:58:09;;;;;;;69.57;48.58;;;16.20;52.30;;;;;;4995639;28;97913;-38
2022/04/01 04:00:36;;;;;;;71.05;48.97;;;16.40;52.10;;;;;;4991324;28;96517;-39
2022/04/01 04:03:07;;;;;;;71.53;49.22;;;16.50;51.90;;;;;;4987618;28;95083;-37
2022/04/01 04:05:38;;;;;;;70.53;49.03;;;16.60;51.70;;;;;;4996192;28;95401;-38
2022/04/01 04:08:05;;;;;;;70.70;48.83;;;16.70;51.70;;;;;;4996922;27;94956;-39
2022/04/01 04:10:34;;;;;;;71.53;49.15;;;16.80;51.40;;;;;;4989190;28;95017;-41
2022/04/01 04:13:01;;;;;;;71.40;49.17;;;16.90;51.40;;;;;;4989571;28;95118;-42
2022/04/01 04:15:29;;;;;;;71.47;49.15;;;17.00;51.30;;;;;;4994501;28;94283;-41
2022/04/01 04:18:01;;;;;;;74.45;49.55;;;17.10;51.20;;;;;;4991872;28;95331;-36
2022/04/01 04:20:39;;;;;;;71.28;48.92;;;17.20;51.00;;;;;;4979267;28;95517;-41
2022/04/01 04:23:27;;;;;;;71.68;49.20;;;17.30;50.70;;;;;;4988959;28;96750;-36
2022/04/01 04:26:11;;;;;;;72.05;49.35;;;17.40;50.60;;;;;;4995561;27;94793;-39
2022/04/01 04:28:43;;;;;;;71.70;49.15;;;17.40;50.60;;;;;;4979215;28;95612;-37
2022/04/01 04:31:09;;;;;;;72.05;49.42;;;17.50;50.40;;;;;;4994356;28;94842;-35
2022/04/01 04:33:43;;;;;;;72.20;49.38;;;17.60;50.40;;;;;;4994353;28;95319;-42
2022/04/01 04:36:10;;;;;;;72.13;49.53;;;17.70;50.10;;;;;;4996992;28;94965;-38
2022/04/01 04:38:41;;;;;;;72.38;49.35;;;17.80;50.00;;;;;;4989834;28;95231;-40
2022/04/01 04:41:10;;;;;;;72.53;49.50;;;17.80;50.00;;;;;;4987524;28;94433;-39
2022/04/01 04:43:38;;;;;;;72.60;49.38;;;17.90;49.90;;;;;;4989628;28;95263;-40
2022/04/01 04:46:05;;;;;;;71.93;49.15;;;17.90;49.70;;;;;;4992129;28;95330;-39
2022/04/01 04:48:36;;;;;;;72.20;49.22;;;18.00;49.80;;;;;;4986413;28;95997;-40
2022/04/01 04:51:03;;;;;;;73.00;49.55;;;18.10;49.60;;;;;;4980655;28;95638;-41
2022/04/01 04:53:35;;;;;;;72.28;49.22;;;18.10;49.40;;;;;;4989371;28;95218;-40
2022/04/01 04:56:02;;;;;;;72.70;49.40;;;18.10;49.50;;;;;;4991467;28;94943;-39
2022/04/01 04:58:40;;;;;;;72.43;49.45;;;18.10;49.50;;;;;;4988029;28;96922;-38
2022/04/01 05:01:34;;;;;;;72.45;49.08;;;18.20;49.30;;;;;;4985000;28;98932;-41
2022/04/01 05:04:25;;;;;;;71.90;49.13;;;18.20;49.20;;;;;;4990548;28;94910;-42
2022/04/01 05:07:10;;;;;;;71.82;49.15;;;18.30;49.20;;;;;;4992482;28;94446;-38
2022/04/01 05:09:45;;;;;;;72.85;49.30;;;18.30;49.10;;;;;;4990749;28;95148;-41
2022/04/01 05:12:28;;;;;;;72.15;49.20;;;18.40;49.10;;;;;;4991709;28;95273;-47
2022/04/01 05:15:08;;;;;;;73.93;49.60;;;18.40;48.90;;;;;;4985219;28;96791;-41
2022/04/01 05:17:43;;;;;;;75.10;49.42;;;18.30;48.90;;;;;;4994504;28;94904;-40
2022/04/01 05:20:16;;;;;;;72.70;49.53;;;18.20;49.60;;;;;;4979215;28;96298;-40
2022/04/01 05:23:12;;;;;;;73.45;49.78;;;18.30;49.40;;;;;;4985235;28;96398;-42
2022/04/01 05:25:43;;;;;;;74.22;49.50;;;18.40;49.60;;;;;;4974783;28;95232;-40
2022/04/01 05:28:23;;;;;;;73.25;49.35;;;18.50;49.40;;;;;;5005854;27;95603;-40
2022/04/01 05:31:04;;;;;;;72.47;49.08;;;18.40;49.10;;;;;;4981135;28;95805;-38
2022/04/01 05:33:41;;;;;;;72.85;49.65;;;18.50;49.40;;;;;;4986125;28;95782;-40
2022/04/01 05:36:09;;;;;;;73.15;49.42;;;18.50;48.80;;;;;;4980442;28;95447;-39
2022/04/01 05:38:36;;;;;;;73.00;49.35;;;18.50;49.30;;;;;;4978842;28;96728;-38
2022/04/01 05:41:02;;;;;;;72.53;49.35;;;18.40;48.90;;;;;;4973289;28;98547;-48
2022/04/01 05:43:29;;;;;;;72.05;49.22;;;18.40;49.20;;;;;;4983782;28;96552;-42
2022/04/01 05:45:56;;;;;;;72.03;49.17;;;18.30;48.90;;;;;;4987255;28;97214;-41
2022/04/01 05:48:22;;;;;;;72.53;49.22;;;18.40;49.60;;;;;;4988113;28;94543;-40
2022/04/01 05:50:51;;;;;;;73.28;49.35;;;18.30;49.10;;;;;;4982461;28;96123;-40
2022/04/01 05:53:20;;;;;;;72.85;49.38;;;18.20;49.10;;;;;;4980319;28;99497;-42
2022/04/01 05:55:46;;;;;;;72.97;49.42;;;18.30;49.70;;;;;;4985916;28;95782;-40
2022/04/01 05:58:12;;;;;;;73.22;49.33;;;18.30;49.30;;;;;;4991865;28;94347;-45
2022/04/01 06:01:22;;;;;;;72.88;49.42;;;18.30;49.40;;;;;;4987416;28;96073;-38
2022/04/01 06:04:03;;;;;;;72.50;49.25;;;18.30;49.50;;;;;;4983909;28;95256;-40
2022/04/01 06:06:38;;;;;;;75.18;49.25;;;18.20;49.60;;;;;;4986832;28;96086;-38
2022/04/01 06:09:15;;;;;;;71.88;49.35;;;18.30;49.70;;;;;;4975679;28;94978;-42
2022/04/01 06:12:12;;;;;;;72.25;49.25;;;18.30;49.70;;;;;;4988228;28;95233;-39
2022/04/01 06:14:59;;;;;;;73.50;49.45;;;18.20;49.60;;;;;;4968638;28;101063;-41
2022/04/01 06:17:39;;;;;;;72.25;49.17;;;18.30;49.70;;;;;;4981838;28;95488;-39
2022/04/01 06:20:07;;;;;;;72.30;49.35;;;18.20;49.70;;;;;;4973015;28;96429;-36
2022/04/01 06:22:39;;;;;;;72.50;49.22;;;18.20;49.80;;;;;;4986182;28;95139;-36
2022/04/01 06:25:13;;;;;;;74.82;49.40;;;18.10;49.80;;;;;;4982640;28;95100;-37
2022/04/01 06:27:47;;;;;;;72.50;49.35;;;18.20;49.90;;;;;;4978302;28;95182;-42
2022/04/01 06:30:17;;;;;;;73.90;49.30;;;18.10;49.80;;;;;;4984207;27;94957;-37
2022/04/01 06:32:55;;;;;;;76.37;49.50;;;18.10;50.60;;;;;;4982040;28;96285;-39
2022/04/01 06:35:35;;;;;;;72.35;49.40;;;18.00;50.10;;;;;;4980353;28;96863;-39
2022/04/01 06:38:06;;;;;;;73.55;49.20;;;18.00;50.00;;;;;;4983779;28;100658;-36
2022/04/01 06:40:53;;;;;;;74.18;49.47;;;17.90;50.30;;;;;;4982782;28;96636;-38
2022/04/01 06:43:18;;;;;;;73.95;50.10;;;17.90;50.50;;;;;;4979186;28;95991;-37
2022/04/01 06:45:44;;;;;;;74.93;49.90;;;17.80;50.80;;;;;;4984506;28;95603;-41
2022/04/01 06:48:10;;;;;;;76.40;49.97;;;17.90;50.60;;;;;;4986509;28;94965;-40
2022/04/01 06:50:37;;;;;;;75.60;49.88;;;17.70;50.10;;;;;;4978463;28;96324;-41
2022/04/01 06:53:03;;;;;;;75.43;49.55;;;17.60;50.90;;;;;;4981062;27;94952;-41
2022/04/01 06:55:29;;;;;;;72.70;49.78;;;17.60;50.90;;;;;;4984982;28;95314;-39
2022/04/01 06:57:55;;;;;;;73.93;49.75;;;17.60;51.00;;;;;;4982384;28;98032;-37
2022/04/01 07:00:20;;;;;;;74.53;49.78;;;17.50;51.10;;;;;;4975206;28;95504;-38
2022/04/01 07:02:48;;;;;;;73.22;49.78;;;17.50;50.70;;;;;;4975267;28;102238;-42
2022/04/01 07:05:13;;;;;;;71.90;49.35;;;17.40;50.60;;;;;;4976886;27;95785;-38
2022/04/01 07:07:43;;;;;;;73.22;49.75;;;17.40;50.70;;;;;;4978363;27;95741;-36
2022/04/01 07:10:11;;;;;;;73.05;49.45;;;17.40;51.20;;;;;;4982889;28;95705;-38
2022/04/01 07:12:37;;;;;;;73.90;49.55;;;17.40;51.00;;;;;;4974544;28;96034;-39
2022/04/01 07:15:04;;;;;;;72.82;49.53;;;17.50;50.80;;;;;;4976962;28;98604;-40
2022/04/01 07:17:29;;;;;;;72.88;49.50;;;17.50;51.00;;;;;;4976942;28;95654;-37
2022/04/01 07:19:55;;;;;;;74.05;49.65;;;17.50;51.00;;;;;;4978300;28;95065;-42
2022/04/01 07:22:21;;;;;;;72.90;49.33;;;17.50;50.90;;;;;;4977849;28;96738;-38
2022/04/01 07:24:47;;;;;;;75.32;49.65;;;17.50;50.60;;;;;;4993516;28;94994;-38
2022/04/01 07:27:13;;;;;;;73.57;49.20;;;17.50;51.00;;;;;;4996192;28;94924;-37
2022/04/01 07:29:38;;;;;;;75.07;50.00;;;17.40;50.80;;;;;;5002819;28;95269;-33
2022/04/01 07:34:49;;;;;;;72.90;49.55;;;17.50;50.80;;;;;;5007444;28;95019;-38
2022/04/01 07:37:15;;;;;;;73.55;49.67;;;17.50;50.60;;;;;;5001306;28;97410;-39
2022/04/01 07:39:41;;;;;;;72.05;49.50;;;17.40;50.60;;;;;;4998185;28;94169;-41
2022/04/01 07:42:07;;;;;;;72.20;49.40;;;17.50;50.50;;;;;;4996155;28;95712;-37
2022/04/01 07:44:33;;;;;;;72.95;49.35;;;17.40;50.50;;;;;;4990993;28;95187;-39
2022/04/01 07:47:00;;;;;;;74.13;49.42;;;17.40;50.60;;;;;;4996755;28;97923;-37
2022/04/01 07:49:26;;;;;;;73.40;49.55;;;17.40;50.70;;;;;;4993155;28;94685;-46
2022/04/01 07:51:52;;;;;;;73.47;49.38;;;17.40;50.60;;;;;;4994363;28;97175;-36
2022/04/01 07:54:17;;;;;;;72.38;49.70;;;17.50;50.50;;;;;;4993412;28;95017;-34
2022/04/01 07:56:43;;;;;;;72.28;49.40;;;17.40;50.00;;;;;;4996205;28;94609;-35
2022/04/01 07:59:11;;;;;;;73.05;49.75;;;17.50;50.00;;;;;;4994542;28;94952;-38
2022/04/01 08:01:37;;;;;;;71.68;49.25;;;17.40;50.30;;;;;;4997887;28;95715;-37
2022/04/01 08:04:03;;;;;;;73.07;49.75;;;17.40;49.90;;;;;;4997404;28;95948;-38
2022/04/01 08:06:30;;;;;;;73.05;49.53;;;17.30;50.30;;;;;;4993393;28;95095;-40
2022/04/01 08:08:58;;;;;;;74.20;49.88;;;17.30;50.60;;;;;;4994094;28;97659;-38
2022/04/01 08:11:25;;;;;;;72.15;49.30;;;17.30;50.20;;;;;;4995383;28;96214;-35
2022/04/01 08:13:51;;;;;;;72.20;49.30;;;17.30;50.40;;;;;;4991668;28;96784;-38
2022/04/01 08:16:17;;;;;;;72.53;49.55;;;17.30;51.00;;;;;;4993156;28;95535;-38
2022/04/01 08:18:43;;;;;;;72.97;49.72;;;17.30;50.30;;;;;;4994616;28;95029;-37
2022/04/01 08:21:09;;;;;;;72.18;49.55;;;17.20;50.40;;;;;;4992616;28;98374;-36
2022/04/01 08:23:36;;;;;;;72.43;49.50;;;17.10;50.50;;;;;;4989994;28;95152;-40
2022/04/01 08:26:02;;;;;;;73.13;49.17;;;17.10;50.40;;;;;;4994462;28;95182;-42
2022/04/01 08:28:28;;;;;;;72.00;49.22;;;17.00;50.80;;;;;;5006644;28;93852;-41
2022/04/01 08:30:54;;;;;;;72.28;49.45;;;16.90;51.00;;;;;;4993717;28;95477;-38
2022/04/01 08:33:20;;;;;;;72.80;49.47;;;16.90;51.00;;;;;;4994489;28;95554;-39
2022/04/01 08:35:47;;;;;;;72.03;49.22;;;16.90;50.90;;;;;;4997294;28;95943;-39
2022/04/01 08:38:13;;;;;;;72.20;49.20;;;16.80;51.00;;;;;;4995396;28;95151;-38
2022/04/01 08:40:38;;;;;;;71.43;49.15;;;16.80;51.30;;;;;;4997949;28;95004;-38
2022/04/01 08:43:04;;;;;;;71.55;49.35;;;16.70;51.50;;;;;;4985572;28;95132;-39
2022/04/01 08:45:35;;;;;;;71.90;49.38;;;16.70;51.40;;;;;;4994590;28;95061;-36
2022/04/01 08:48:02;;;;;;;71.60;49.22;;;16.70;51.50;;;;;;4998461;28;96655;-37
2022/04/01 08:50:28;;;;;;;71.20;49.05;;;16.60;51.50;;;;;;4995158;28;95062;-37
2022/04/01 08:52:53;;;;;;;71.63;49.42;;;16.60;51.60;;;;;;4995190;28;94891;-38
2022/04/01 08:55:19;;;;;;;70.88;49.03;;;16.60;51.40;;;;;;4997741;28;95233;-37
2022/04/01 08:57:45;;;;;;;72.03;49.50;;;16.60;51.60;;;;;;4990966;28;95077;-39
2022/04/01 09:00:13;;;;;;;71.78;49.25;;;16.60;51.50;;;;;;4996178;28;96221;-43
2022/04/01 09:02:39;;;;;;;72.18;49.40;;;16.60;51.50;;;;;;4988088;28;94961;-41
2022/04/01 09:05:06;;;;;;;72.22;49.63;;;16.60;51.50;;;;;;4995199;28;94875;-38
2022/04/01 09:07:32;;;;;;;74.07;49.45;;;16.60;51.40;;;;;;4996488;28;94745;-36
2022/04/01 09:10:06;;;;;;;72.30;49.25;;;16.60;51.40;;;;;;4993215;28;95549;-42
2022/04/01 09:12:32;;;;;;;72.05;49.33;;;16.60;51.50;;;;;;4997070;28;94904;-41
2022/04/01 09:14:58;;;;;;;72.55;49.40;;;16.60;51.50;;;;;;4997533;28;95339;-41
2022/04/01 09:17:41;;;;;;;72.38;49.70;;;16.60;51.30;;;;;;5004280;28;93880;-38
2022/04/01 09:20:09;;;;;;;72.18;49.25;;;16.60;51.20;;;;;;4992594;28;95620;-36
2022/04/01 09:22:36;;;;;;;71.82;49.13;;;16.50;51.30;;;;;;4995357;28;95211;-40
2022/04/01 09:25:02;;;;;;;71.75;49.25;;;16.40;51.40;;;;;;4992664;28;98112;-38
2022/04/01 09:27:51;;;;;;;72.10;49.47;;;16.40;51.70;;;;;;4996448;28;94988;-38
2022/04/01 09:30:26;;;;;;;70.78;48.85;;;16.40;52.30;;;;;;4994446;28;96280;-38
2022/04/01 09:32:58;;;;;;;71.00;49.40;;;16.40;51.90;;;;;;4998969;28;94912;-37
2022/04/01 09:35:26;;;;;;;70.38;48.83;;;16.40;51.50;;;;;;4992674;28;94656;-36
2022/04/01 09:38:01;;;;;;;71.05;48.90;;;16.30;51.90;;;;;;4997857;28;95000;-39
2022/04/01 09:40:27;;;;;;;70.88;49.05;;;16.30;51.90;;;;;;4989342;28;95503;-38
2022/04/01 09:42:58;;;;;;;71.32;49.30;;;16.20;51.80;;;;;;4997676;28;95530;-37
2022/04/01 09:45:32;;;;;;;70.80;49.03;;;16.20;51.90;;;;;;4997310;28;95778;-37
2022/04/01 09:48:02;;;;;;;71.20;49.22;;;16.20;52.10;;;;;;4991537;28;96371;-33
2022/04/01 09:50:31;;;;;;;70.97;49.05;;;16.20;52.10;;;;;;4991508;28;96291;-38
2022/04/01 09:53:11;;;;;;;70.80;48.95;;;16.10;52.00;;;;;;4996174;28;96662;-36
2022/04/01 09:55:38;;;;;;;70.57;48.90;;;16.10;52.00;;;;;;4998059;28;98308;-37
2022/04/01 09:58:06;;;;;;;70.63;49.03;;;16.00;52.10;;;;;;4999384;28;94805;-39
2022/04/01 10:00:33;;;;;;;70.53;49.15;;;16.00;52.20;;;;;;4997461;28;96288;-38
2022/04/01 10:03:01;;;;;;;70.95;49.08;;;16.00;52.10;;;;;;4990944;28;94894;-38
2022/04/01 10:05:27;;;;;;;71.10;49.17;;;16.00;52.40;;;;;;4993993;28;95149;-35
2022/04/01 10:07:57;;;;;;;71.35;49.35;;;16.00;52.50;;;;;;4996334;28;94202;-37
2022/04/01 10:10:25;;;;;;;71.47;49.17;;;16.00;52.40;;;;;;4990461;28;96506;-38
2022/04/01 10:12:55;;;;;;;71.28;49.05;;;16.00;52.80;;;;;;4997260;28;96305;-35
2022/04/01 10:15:22;;;;;;;71.13;49.13;;;16.00;52.10;;;;;;4998471;28;95957;-36
2022/04/01 10:17:49;;;;;;;70.80;49.15;;;15.90;52.30;;;;;;4999658;28;94888;-38
2022/04/01 10:20:17;;;;;;;70.55;48.92;;;15.90;52.20;;;;;;4991805;28;94621;-37
2022/04/01 10:22:45;;;;;;;70.38;49.05;;;15.90;52.50;;;;;;4991282;28;95006;-36
2022/04/01 10:25:29;;;;;;;70.97;49.15;;;15.90;52.50;;;;;;4991118;28;97030;-38
2022/04/01 10:27:58;;;;;;;70.63;49.03;;;15.90;52.40;;;;;;4998469;28;94727;-39
2022/04/01 10:30:25;;;;;;;71.30;49.15;;;15.90;52.30;;;;;;4995090;27;95813;-38
2022/04/01 10:32:51;;;;;;;71.32;49.35;;;15.90;52.50;;;;;;4999354;28;94646;-39
2022/04/01 10:35:31;;;;;;;71.93;49.33;;;15.80;52.40;;;;;;4998292;28;94891;-36
2022/04/01 10:38:05;;;;;;;71.72;49.38;;;15.90;52.50;;;;;;4992526;28;94620;-39
2022/04/01 10:40:37;;;;;;;70.97;49.15;;;15.80;52.20;;;;;;4985133;28;96176;-39
2022/04/01 10:43:19;;;;;;;73.32;49.17;;;15.80;52.20;;;;;;4990816;28;96298;-34
2022/04/01 10:46:05;;;;;;;72.35;49.22;;;15.80;52.50;;;;;;4994416;28;97988;-40
2022/04/01 10:51:37;;;;;;;72.50;49.55;;;15.90;52.30;;;;;;4990426;28;95451;-36
2022/04/01 10:54:29;;;;;;;73.00;49.63;;;15.90;52.30;;;;;;4995251;28;95485;-39
2022/04/01 10:57:06;;;;;;;73.70;49.95;;;15.90;52.20;;;;;;4984332;28;94994;-41
2022/04/01 10:59:46;;;;;;;74.25;49.80;;;16.00;52.20;;;;;;4988885;28;93807;-35
2022/04/01 11:02:15;;;;;;;72.63;49.53;;;16.00;52.20;;;;;;4995942;28;95775;-41
2022/04/01 11:04:44;;;;;;;73.40;49.75;;;16.00;52.20;;;;;;4991230;28;97518;-39
2022/04/01 11:07:29;;;;;;;73.78;49.95;;;16.00;51.90;;;;;;4998979;28;96534;-41
2022/04/01 11:10:00;;;;;;;73.20;49.75;;;16.00;52.10;;;;;;4991963;28;95020;-37
2022/04/01 11:12:29;;;;;;;72.43;49.53;;;15.90;52.30;;;;;;4994979;28;95240;-35
2022/04/01 11:15:08;;;;;;;72.82;49.58;;;15.90;52.10;;;;;;4994914;28;97826;-36
2022/04/01 11:17:34;;;;;;;73.20;49.53;;;15.90;52.30;;;;;;4989329;28;94689;-44
2022/04/01 11:20:06;;;;;;;73.10;49.58;;;15.90;52.50;;;;;;4996239;28;95003;-38
2022/04/01 11:22:41;;;;;;;73.63;49.70;;;15.90;52.30;;;;;;4985252;28;94963;-39
2022/04/01 11:25:35;;;;;;;73.38;49.85;;;15.90;52.40;;;;;;4994024;28;94596;-39
2022/04/01 11:28:05;;;;;;;74.05;49.58;;;16.00;52.20;;;;;;4993618;28;95140;-38
2022/04/01 11:30:35;;;;;;;74.53;49.88;;;16.00;52.30;;;;;;4990765;28;97022;-39
2022/04/01 11:33:16;;;;;;;73.38;49.60;;;16.00;52.10;;;;;;5000330;28;96942;-39
2022/04/01 11:35:53;;;;;;;73.80;49.80;;;16.00;52.20;;;;;;4990864;28;96054;-37
2022/04/01 11:38:22;;;;;;;72.95;49.30;;;16.00;52.40;;;;;;4991176;28;95037;-36
2022/04/01 11:40:50;;;;;;;73.03;49.78;;;16.00;52.50;;;;;;4998017;28;94623;-37
2022/04/01 11:43:18;;;;;;;74.00;49.85;;;16.00;52.60;;;;;;4998505;28;95858;-36
2022/04/01 11:45:51;;;;;;;73.13;49.75;;;16.00;52.80;;;;;;4990638;28;95580;-38
2022/04/01 11:48:36;;;;;;;73.05;49.80;;;16.00;52.70;;;;;;4999948;28;94911;-43
2022/04/01 11:51:09;;;;;;;73.60;49.35;;;15.90;52.70;;;;;;4994230;28;94196;-39
2022/04/01 11:53:42;;;;;;;72.18;49.72;;;15.90;52.90;;;;;;4997886;28;95190;-40
2022/04/01 11:56:10;;;;;;;73.10;49.30;;;15.90;52.80;;;;;;4991222;28;95229;-35
2022/04/01 11:58:52;;;;;;;71.95;49.35;;;15.80;53.00;;;;;;5004664;28;96071;-36
2022/04/01 12:01:20;;;;;;;72.28;49.33;;;15.80;53.00;;;;;;4990185;28;95288;-39
2022/04/01 12:03:46;;;;;;;72.22;49.15;;;15.70;53.00;;;;;;4995852;28;95130;-38
2022/04/01 12:09:02;;;;;;;71.13;48.75;;;15.70;53.10;;;;;;4993815;28;96374;-42
2022/04/01 12:11:28;;;;;;;71.28;49.00;;;15.60;53.10;;;;;;4996377;28;94850;-37
2022/04/01 12:13:54;;;;;;;71.70;48.95;;;15.60;53.10;;;;;;5001079;28;95936;-40
2022/04/01 12:16:21;;;;;;;71.65;48.95;;;15.70;53.10;;;;;;4996802;28;94599;-41
2022/04/01 12:18:49;;;;;;;72.25;49.33;;;15.60;52.80;;;;;;4999655;27;94907;-39
2022/04/01 12:21:20;;;;;;;73.30;49.28;;;15.70;53.00;;;;;;4977649;28;95096;-37
2022/04/01 12:23:48;;;;;;;72.38;49.50;;;15.70;52.90;;;;;;4976892;28;97218;-36
2022/04/01 12:26:15;;;;;;;72.28;49.38;;;15.70;52.90;;;;;;4974353;28;96419;-34
2022/04/01 12:28:43;;;;;;;72.03;49.30;;;15.70;52.70;;;;;;4975778;28;95215;-38
2022/04/01 12:31:19;;;;;;;73.43;49.38;;;15.70;52.80;;;;;;4982921;28;94800;-38
2022/04/01 12:33:50;;;;;;;72.65;49.35;;;15.70;52.80;;;;;;4976548;28;94961;-36
2022/04/01 12:36:18;;;;;;;73.33;49.70;;;15.80;52.70;;;;;;4971198;28;95656;-36
2022/04/01 12:39:00;;;;;;;72.43;49.45;;;15.80;52.70;;;;;;4973781;28;94855;-38
2022/04/01 12:41:26;;;;;;;73.88;49.58;;;15.80;52.40;;;;;;4971375;28;95061;-34
2022/04/01 12:43:53;;;;;;;72.95;49.65;;;15.70;52.50;;;;;;4973018;28;95049;-36
2022/04/01 12:46:25;;;;;;;72.18;49.13;;;15.70;52.60;;;;;;4967774;28;95580;-43
2022/04/01 12:48:59;;;;;;;73.13;49.63;;;15.70;52.60;;;;;;4975599;28;95988;-38
2022/04/01 12:51:30;;;;;;;73.68;49.53;;;15.80;52.70;;;;;;4973214;28;94818;-38